createdAt,value
2022-11-20T00:01:10.764Z,18.35
2022-11-20T00:07:12.698Z,18.48
2022-11-20T00:13:15.017Z,17.88
2022-11-20T00:19:17.064Z,16.75
2022-11-20T00:25:19.064Z,16.67
2022-11-20T00:31:21.556Z,16.25
2022-11-20T00:37:23.452Z,15.90
2022-11-20T00:43:25.956Z,16.70
2022-11-20T00:49:27.863Z,17.13
2022-11-20T00:55:29.735Z,18.25
2022-11-20T01:01:31.753Z,20.67
2022-11-20T01:07:33.755Z,18.60
2022-11-20T01:13:38.565Z,18.95
2022-11-20T01:19:40.464Z,20.15
2022-11-20T01:25:42.455Z,18.65
2022-11-20T01:31:45.170Z,19.27
2022-11-20T01:37:47.090Z,19.33
2022-11-20T01:43:49.044Z,17.15
2022-11-20T01:50:05.506Z,18.05
2022-11-20T01:56:11.314Z,20.20
2022-11-20T02:02:13.281Z,18.30
2022-11-20T02:08:15.462Z,18.75
2022-11-20T02:14:17.438Z,17.83
2022-11-20T02:20:22.026Z,18.45
2022-11-20T02:26:24.938Z,17.15
2022-11-20T02:32:29.573Z,17.17
2022-11-20T02:38:31.594Z,17.70
2022-11-20T02:44:33.574Z,16.67
2022-11-20T02:50:39.869Z,16.55
2022-11-20T02:56:41.975Z,18.52
2022-11-20T03:02:44.318Z,17.80
2022-11-20T03:08:46.339Z,16.25
2022-11-20T03:14:52.771Z,18.45
2022-11-20T03:20:59.921Z,18.23
2022-11-20T03:27:01.953Z,17.08
2022-11-20T03:33:03.976Z,17.15
2022-11-20T03:39:05.893Z,16.75
2022-11-20T03:45:08.374Z,18.30
2022-11-20T03:51:15.833Z,17.75
2022-11-20T03:57:17.744Z,16.85
2022-11-20T04:03:19.640Z,17.73
2022-11-20T04:09:21.705Z,16.88
2022-11-20T04:15:23.754Z,18.15
2022-11-20T04:21:26.723Z,17.58
2022-11-20T04:27:28.652Z,16.60
2022-11-20T04:33:34.124Z,18.83
2022-11-20T04:39:36.374Z,19.43
2022-11-20T04:45:38.297Z,19.75
2022-11-20T04:51:40.270Z,19.15
2022-11-20T04:57:42.193Z,18.65
2022-11-20T05:03:45.392Z,18.70
2022-11-20T05:09:47.291Z,16.88
2022-11-20T05:15:49.267Z,18.20
2022-11-20T05:21:51.497Z,18.02
2022-11-20T05:27:54.396Z,17.38
2022-11-20T05:33:58.207Z,15.95
2022-11-20T05:40:00.395Z,17.08
2022-11-20T05:46:02.630Z,17.50
2022-11-20T05:52:04.784Z,16.38
2022-11-20T05:58:06.732Z,18.00
2022-11-20T06:04:08.650Z,17.33
2022-11-20T06:10:11.521Z,18.42
2022-11-20T06:16:16.117Z,18.60
2022-11-20T06:22:17.995Z,18.55
2022-11-20T06:28:19.943Z,17.90
2022-11-20T06:34:21.817Z,18.95
2022-11-20T06:40:23.658Z,18.55
2022-11-20T06:46:25.584Z,20.15
2022-11-20T06:52:27.467Z,19.23
2022-11-20T06:58:32.046Z,19.48
2022-11-20T07:04:33.952Z,21.17
2022-11-20T07:10:36.324Z,20.90
2022-11-20T07:16:38.278Z,21.27
2022-11-20T07:22:40.538Z,24.27
2022-11-20T07:28:46.120Z,24.73
2022-11-20T07:34:48.078Z,20.20
2022-11-20T07:40:54.146Z,17.80
2022-11-20T07:46:56.084Z,19.08
2022-11-20T07:53:07.635Z,23.05
2022-11-20T07:59:09.509Z,21.17
2022-11-20T08:05:11.661Z,25.55
2022-11-20T08:11:32.198Z,23.75
2022-11-20T08:17:34.093Z,23.23
2022-11-20T08:23:35.980Z,21.83
2022-11-20T08:29:37.946Z,25.17
2022-11-20T08:35:39.952Z,23.70
2022-11-20T08:41:41.887Z,24.20
2022-11-20T08:47:44.357Z,24.23
2022-11-20T08:53:46.461Z,23.30
2022-11-20T09:00:05.582Z,22.75
2022-11-20T09:06:09.081Z,23.02
2022-11-20T09:12:11.010Z,22.60
2022-11-20T09:18:13.701Z,21.70
2022-11-20T09:24:15.599Z,23.45
2022-11-20T09:30:17.773Z,21.48
2022-11-20T09:36:19.741Z,20.00
2022-11-20T09:42:47.737Z,19.88
2022-11-20T09:49:19.375Z,18.73
2022-11-20T09:55:22.481Z,19.88
2022-11-20T10:01:30.233Z,18.40
2022-11-20T10:07:56.449Z,18.08
2022-11-20T10:14:16.169Z,17.10
2022-11-20T10:20:47.376Z,16.90
2022-11-20T10:27:06.817Z,16.80
2022-11-20T10:33:22.905Z,16.38
2022-11-20T10:39:36.344Z,16.40
2022-11-20T10:45:56.927Z,17.23
2022-11-20T10:52:30.508Z,16.58
2022-11-20T10:59:02.576Z,17.40
2022-11-20T11:05:34.514Z,17.92
2022-11-20T11:11:36.389Z,17.85
2022-11-20T11:17:48.135Z,17.27
2022-11-20T11:24:13.516Z,17.40
2022-11-20T11:30:22.795Z,18.20
2022-11-20T11:36:26.087Z,17.08
2022-11-20T11:42:30.144Z,16.77
2022-11-20T11:48:32.063Z,16.67
2022-11-20T11:54:58.406Z,15.50
2022-11-20T12:01:22.607Z,15.85
2022-11-20T12:07:47.702Z,16.08
2022-11-20T12:14:25.140Z,14.95
2022-11-20T12:20:46.678Z,16.00
2022-11-20T12:26:59.643Z,16.15
2022-11-20T12:33:07.676Z,14.98
2022-11-20T12:39:36.534Z,16.00
2022-11-20T12:46:13.077Z,15.77
2022-11-20T12:52:49.529Z,14.93
2022-11-20T12:58:51.447Z,14.20
2022-11-20T13:05:18.337Z,14.55
2022-11-20T13:11:29.293Z,14.35
2022-11-20T13:17:54.977Z,15.00
2022-11-20T13:24:27.366Z,15.00
2022-11-20T13:30:31.124Z,13.57
2022-11-20T13:36:33.572Z,14.80
2022-11-20T13:42:46.671Z,14.80
2022-11-20T13:48:48.717Z,13.40
2022-11-20T13:55:07.532Z,12.93
2022-11-20T14:01:11.342Z,12.82
2022-11-20T14:07:14.259Z,13.80
2022-11-20T14:13:20.824Z,14.32
2022-11-20T14:19:26.026Z,14.13
2022-11-20T14:25:28.308Z,13.60
2022-11-20T14:31:30.701Z,13.75
2022-11-20T14:37:35.271Z,13.45
2022-11-20T14:43:38.823Z,12.73
2022-11-20T14:49:41.813Z,13.05
2022-11-20T14:55:44.085Z,14.38
2022-11-20T15:02:06.854Z,13.48
2022-11-20T15:08:11.575Z,13.35
2022-11-20T15:14:13.452Z,13.55
2022-11-20T15:20:17.679Z,14.38
2022-11-20T15:26:26.658Z,12.80
2022-11-20T15:32:28.526Z,14.43
2022-11-20T15:38:30.452Z,14.30
2022-11-20T15:44:32.456Z,14.00
2022-11-20T15:50:38.817Z,13.73
2022-11-20T16:04:28.261Z,13.88
2022-11-20T16:10:30.712Z,14.05
2022-11-20T16:16:37.365Z,14.45
2022-11-20T16:22:39.235Z,15.68
2022-11-20T16:28:41.390Z,14.60
2022-11-20T16:34:43.289Z,14.27
2022-11-20T16:40:46.288Z,13.00
2022-11-20T16:46:48.211Z,13.95
2022-11-20T16:52:50.121Z,15.10
2022-11-20T16:58:55.833Z,14.48
2022-11-20T17:04:57.742Z,14.07
2022-11-20T17:11:08.799Z,13.82
2022-11-20T17:17:10.740Z,13.70
2022-11-20T17:23:12.659Z,13.40
2022-11-20T17:29:16.906Z,13.82
2022-11-20T17:35:18.762Z,13.95
2022-11-20T17:41:25.950Z,14.07
2022-11-20T17:53:34.589Z,13.05
2022-11-20T17:59:37.846Z,13.90
2022-11-20T18:05:39.822Z,13.20
2022-11-20T18:11:43.360Z,11.70
2022-11-20T18:17:45.231Z,20.20
2022-11-20T18:23:47.129Z,11.80
2022-11-20T18:29:52.098Z,10.63
2022-11-20T18:35:54.329Z,10.07
2022-11-20T18:42:14.768Z,10.85
2022-11-20T18:48:16.699Z,10.68
2022-11-20T18:54:18.813Z,11.48
2022-11-20T19:00:21.074Z,10.65
2022-11-20T19:06:23.314Z,11.27
2022-11-20T19:12:25.309Z,10.30
2022-11-20T19:18:28.493Z,10.27
2022-11-20T19:24:30.382Z,10.68
2022-11-20T19:30:33.389Z,12.10
2022-11-20T19:36:43.213Z,12.60
2022-11-20T19:42:46.585Z,13.20
2022-11-20T19:48:48.695Z,13.05
2022-11-20T19:54:50.771Z,12.70
2022-11-20T20:00:52.681Z,13.88
2022-11-20T20:06:54.649Z,13.32
2022-11-20T20:12:57.192Z,15.00
2022-11-20T20:19:01.786Z,13.93
2022-11-20T20:25:03.875Z,14.68
2022-11-20T20:31:07.880Z,14.65
2022-11-20T20:37:09.735Z,14.13
2022-11-20T20:43:11.603Z,13.93
2022-11-20T20:49:13.533Z,21.05
2022-11-20T20:55:15.498Z,13.95
2022-11-20T21:01:19.398Z,14.30
2022-11-20T21:07:21.663Z,13.68
2022-11-20T21:13:24.070Z,12.88
2022-11-20T21:19:26.054Z,20.80
2022-11-20T21:25:28.007Z,13.32
2022-11-20T21:31:31.140Z,12.35
2022-11-20T21:37:36.017Z,12.57
2022-11-20T21:43:42.911Z,15.05
2022-11-20T21:49:44.865Z,11.82
2022-11-20T21:55:54.475Z,10.30
2022-11-20T22:01:56.437Z,9.98
2022-11-20T22:07:58.400Z,8.90
2022-11-20T22:14:18.668Z,9.40
2022-11-20T22:20:20.566Z,7.88
2022-11-20T22:26:25.468Z,9.65
2022-11-20T22:32:27.334Z,9.18
2022-11-20T22:38:29.854Z,8.80
2022-11-20T22:44:31.861Z,6.57
2022-11-20T22:50:33.801Z,7.50
2022-11-20T22:56:35.690Z,6.55
2022-11-20T23:02:37.531Z,6.57
2022-11-20T23:08:40.691Z,7.15
2022-11-20T23:14:42.618Z,6.63
2022-11-20T23:20:44.513Z,7.43
2022-11-20T23:26:47.976Z,7.57
2022-11-20T23:32:49.897Z,6.72
2022-11-20T23:38:52.385Z,8.18
2022-11-20T23:44:54.235Z,8.00
2022-11-20T23:50:56.852Z,7.50
2022-11-20T23:56:58.774Z,7.53
